Time;durP1;ratioP1;P1;durP2;ratioP2;P2;SDS_P1;SDS_P2;PMS_P1;PMS_P2;Temp;Humidity;BMP_temperature;BMP_pressure;BME280_temperature;BME280_humidity;BME280_pressure;Samples;Min_cycle;Max_cycle;Signal;HPM_P1;HPM_P2
2022/03/18 00:02:06;;;;;;;44.65;5.70;;;;;;;5.02;100.00;103026.22;4806276;29;20027;-78
2022/03/18 00:04:31;;;;;;;49.00;6.32;;;;;;;5.04;100.00;103031.47;4772512;30;20466;-79
2022/03/18 00:06:57;;;;;;;44.92;5.57;;;;;;;5.07;100.00;103041.91;4773270;30;20063;-79
2022/03/18 00:09:22;;;;;;;53.03;5.68;;;;;;;5.14;100.00;103043.19;4773074;29;20146;-79
2022/03/18 00:11:48;;;;;;;40.53;5.43;;;;;;;5.19;100.00;103049.03;4791313;29;20362;-79
2022/03/18 00:14:14;;;;;;;44.30;5.50;;;;;;;5.21;100.00;103051.63;4771737;30;20039;-79
2022/03/18 00:16:40;;;;;;;37.83;5.25;;;;;;;5.22;100.00;103055.97;4803325;29;20035;-79
2022/03/18 00:19:06;;;;;;;43.95;6.18;;;;;;;5.29;100.00;103068.78;4814856;29;20027;-79
2022/03/18 00:21:34;;;;;;;50.25;6.95;;;;;;;5.34;100.00;103071.13;4818379;29;20056;-79
2022/03/18 00:24:00;;;;;;;45.42;5.78;;;;;;;4.98;100.00;102999.88;4792284;29;20027;-79
2022/03/18 00:26:25;;;;;;;47.50;6.13;;;;;;;5.41;100.00;103075.06;4789610;29;20103;-79
2022/03/18 00:28:51;;;;;;;64.82;5.95;;;;;;;5.34;100.00;103065.78;4790988;29;20416;-79
2022/03/18 00:31:17;;;;;;;45.72;5.35;;;;;;;5.42;100.00;103082.09;4776291;29;20066;-79
2022/03/18 00:33:42;;;;;;;46.80;5.32;;;;;;;5.48;100.00;103081.66;4794233;29;20039;-79
2022/03/18 00:36:08;;;;;;;49.65;5.90;;;;;;;5.50;100.00;103093.09;4792003;29;20034;-79
2022/03/18 00:38:34;;;;;;;54.00;6.22;;;;;;;5.53;100.00;103089.34;4788911;29;20046;-79
2022/03/18 00:41:01;;;;;;;46.88;6.28;;;;;;;5.50;100.00;103071.75;4789826;29;20035;-79
2022/03/18 00:43:26;;;;;;;48.10;5.65;;;;;;;5.61;100.00;103084.31;4790907;29;20057;-78
2022/03/18 00:45:51;;;;;;;40.65;6.32;;;;;;;5.60;100.00;103091.47;4774337;29;20031;-79
2022/03/18 00:53:45;;;;;;;48.70;5.78;;;;;;;5.51;100.00;103073.44;4806322;29;20081;-79
2022/03/18 00:56:12;;;;;;;43.63;6.40;;;;;;;5.53;100.00;103081.34;4790501;29;20065;-79
2022/03/18 00:58:38;;;;;;;49.63;5.70;;;;;;;5.67;100.00;103102.59;4789032;29;20022;-79
2022/03/18 01:01:03;;;;;;;39.65;5.65;;;;;;;5.57;100.00;103090.84;4790422;29;20122;-78
2022/03/18 01:03:29;;;;;;;44.58;5.43;;;;;;;5.35;100.00;103059.47;4758791;29;20031;-79
2022/03/18 01:05:54;;;;;;;49.72;5.80;;;;;;;5.57;100.00;103102.38;4789368;29;20069;-79
2022/03/18 01:08:20;;;;;;;51.38;5.78;;;;;;;5.60;100.00;103095.97;4805063;29;20496;-79
2022/03/18 01:10:45;;;;;;;50.60;5.68;;;;;;;5.60;100.00;103102.16;4806633;29;20059;-79
2022/03/18 01:13:11;;;;;;;49.88;6.40;;;;;;;5.60;100.00;103099.50;4805839;29;20100;-79
2022/03/18 01:15:36;;;;;;;41.15;5.15;;;;;;;5.62;100.00;103105.56;4789478;29;20143;-79
2022/03/18 01:18:02;;;;;;;44.15;5.78;;;;;;;5.55;100.00;103104.28;4806110;29;20322;-79
2022/03/18 01:20:28;;;;;;;38.42;5.55;;;;;;;5.54;100.00;103099.94;4804915;29;20149;-79
2022/03/18 01:22:53;;;;;;;46.58;5.50;;;;;;;5.61;100.00;103113.69;4806465;29;20042;-79
2022/03/18 01:25:19;;;;;;;46.83;5.47;;;;;;;5.36;100.00;103087.88;4785293;29;20027;-79
2022/03/18 01:27:44;;;;;;;43.08;5.80;;;;;;;5.41;100.00;103089.28;4797054;29;20043;-79
2022/03/18 01:30:11;;;;;;;52.35;6.47;;;;;;;5.59;100.00;103123.63;4767429;29;20039;-79
2022/03/18 01:32:36;;;;;;;47.78;6.40;;;;;;;5.60;100.00;103126.19;4775894;29;20023;-78
2022/03/18 01:35:03;;;;;;;40.40;5.45;;;;;;;5.57;100.00;103129.09;4776389;30;20042;-79
2022/03/18 01:37:28;;;;;;;41.47;5.93;;;;;;;5.53;100.00;103114.25;4785238;29;20128;-79
2022/03/18 01:39:54;;;;;;;50.08;5.90;;;;;;;5.62;100.00;103140.28;4790692;29;20056;-79
2022/03/18 01:42:19;;;;;;;53.75;6.88;;;;;;;5.62;100.00;103140.28;4790313;29;20039;-79
2022/03/18 01:44:47;;;;;;;60.45;6.75;;;;;;;5.59;100.00;103132.47;4777924;29;20122;-79
2022/03/18 01:47:13;;;;;;;44.88;5.80;;;;;;;5.62;100.00;103136.75;4776602;29;20043;-79
2022/03/18 01:49:39;;;;;;;52.95;6.45;;;;;;;5.54;100.00;103134.66;4803636;29;20035;-79
2022/03/18 01:52:08;;;;;;;42.03;6.43;;;;;;;5.60;100.00;103139.56;4799802;29;20101;-78
2022/03/18 01:54:49;;;;;;;44.30;6.25;;;;;;;5.57;100.00;103147.78;4772001;30;20370;-78
2022/03/18 01:57:20;;;;;;;36.88;5.13;;;;;;;5.44;100.00;103109.56;4766026;29;20031;-79
2022/03/18 01:59:48;;;;;;;41.85;5.13;;;;;;;5.58;100.00;103136.13;4807210;29;20114;-78
2022/03/18 02:02:15;;;;;;;42.83;5.85;;;;;;;5.60;100.00;103136.88;4792570;29;20034;-79
2022/03/18 02:04:41;;;;;;;51.40;6.75;;;;;;;5.59;100.00;103142.31;4793741;29;20374;-79
2022/03/18 02:07:07;;;;;;;38.00;5.25;;;;;;;5.60;100.00;103133.38;4807916;29;20440;-79
2022/03/18 02:09:33;;;;;;;36.47;5.82;;;;;;;5.58;100.00;103117.44;4792201;29;20205;-79
2022/03/18 02:12:01;;;;;;;46.75;6.68;;;;;;;5.59;100.00;103110.28;4809326;29;20039;-79
2022/03/18 02:14:35;;;;;;;46.78;6.80;;;;;;;5.43;100.00;103123.88;4774019;30;20031;-79
2022/03/18 02:17:03;;;;;;;44.57;6.20;;;;;;;5.22;100.00;103099.53;4790016;30;20027;-79
2022/03/18 02:19:30;;;;;;;43.85;5.45;;;;;;;5.46;100.00;103137.00;4796687;29;20135;-79
2022/03/18 02:21:56;;;;;;;50.15;6.47;;;;;;;5.52;100.00;103149.91;4794291;29;20031;-79
2022/03/18 02:24:22;;;;;;;46.25;7.00;;;;;;;5.35;100.00;103134.22;4809177;29;20132;-79
2022/03/18 02:26:49;;;;;;;41.80;6.45;;;;;;;5.44;100.00;103146.94;4792215;29;20062;-79
2022/03/18 02:29:17;;;;;;;48.55;6.65;;;;;;;5.49;100.00;103160.81;4793476;29;20066;-80
2022/03/18 02:31:43;;;;;;;47.10;8.35;;;;;;;5.51;100.00;103161.56;4807042;29;20035;-79
2022/03/18 02:34:08;;;;;;;47.25;6.97;;;;;;;5.51;100.00;103166.91;4793641;29;20095;-79
2022/03/18 02:36:34;;;;;;;43.58;7.00;;;;;;;5.53;100.00;103156.97;4791702;29;20035;-78
2022/03/18 02:38:59;;;;;;;53.97;7.50;;;;;;;5.51;100.00;103158.91;4791842;29;20129;-79
2022/03/18 02:41:24;;;;;;;41.05;7.07;;;;;;;5.16;100.00;103103.47;4763061;29;20362;-78
2022/03/18 02:43:50;;;;;;;54.70;7.25;;;;;;;5.29;100.00;103134.66;4788780;29;20030;-78
2022/03/18 02:46:16;;;;;;;55.15;6.55;;;;;;;5.54;100.00;103171.19;4808940;29;20046;-78
2022/03/18 02:48:41;;;;;;;55.22;7.68;;;;;;;5.56;100.00;103175.47;4791948;29;20484;-78
2022/03/18 02:51:07;;;;;;;50.45;7.60;;;;;;;5.57;100.00;103184.31;4793435;29;20119;-79
2022/03/18 02:53:33;;;;;;;55.55;7.88;;;;;;;5.55;100.00;103196.91;4791967;29;20031;-78
2022/03/18 02:55:59;;;;;;;46.70;6.97;;;;;;;5.42;100.00;103167.53;4796589;29;20526;-79
2022/03/18 02:58:25;;;;;;;44.67;7.28;;;;;;;5.06;100.00;103115.75;4792841;29;20065;-79
2022/03/18 03:00:51;;;;;;;51.00;7.10;;;;;;;5.36;100.00;103190.22;4790414;29;20454;-79
2022/03/18 03:03:17;;;;;;;54.63;7.43;;;;;;;5.34;100.00;103202.78;4790264;29;20039;-78
2022/03/18 03:08:26;;;;;;;47.63;7.70;;;;;;;5.03;100.00;103166.66;4805049;29;20543;-78
2022/03/18 03:10:52;;;;;;;55.58;8.18;;;;;;;5.22;100.00;103202.78;4791339;29;20145;-79
2022/03/18 03:13:17;;;;;;;44.15;7.57;;;;;;;5.17;100.00;103201.28;4791723;29;20045;-78
2022/03/18 03:15:43;;;;;;;47.75;8.35;;;;;;;5.07;100.00;103186.88;4777283;29;20450;-79
2022/03/18 03:18:08;;;;;;;48.42;8.45;;;;;;;5.09;100.00;103208.09;4811416;29;20050;-78
2022/03/18 03:20:34;;;;;;;42.90;8.73;;;;;;;5.03;100.00;103204.03;4808395;29;20050;-79
2022/03/18 03:22:59;;;;;;;51.58;8.75;;;;;;;5.05;100.00;103228.81;4791233;29;20079;-78
2022/03/18 03:25:25;;;;;;;50.47;8.52;;;;;;;5.01;100.00;103227.31;4774065;30;20035;-79
2022/03/18 03:27:51;;;;;;;46.85;8.05;;;;;;;5.02;100.00;103233.50;4790423;30;20036;-78
2022/03/18 03:30:17;;;;;;;49.92;8.43;;;;;;;5.05;100.00;103234.13;4780480;29;20033;-79
2022/03/18 03:32:42;;;;;;;60.60;9.75;;;;;;;5.10;100.00;103231.16;4792214;29;20031;-78
2022/03/18 03:35:08;;;;;;;56.83;10.93;;;;;;;5.12;100.00;103232.75;4790419;29;20049;-78
2022/03/18 03:37:34;;;;;;;45.25;8.25;;;;;;;5.11;100.00;103217.72;4777925;29;20045;-78
2022/03/18 03:39:59;;;;;;;47.88;9.02;;;;;;;5.03;100.00;103209.34;4807194;29;20229;-78
2022/03/18 03:42:25;;;;;;;52.88;9.85;;;;;;;5.11;100.00;103212.38;4800746;29;20023;-78
2022/03/18 03:44:52;;;;;;;59.63;10.80;;;;;;;5.17;100.00;103232.47;4789604;30;20088;-78
2022/03/18 03:47:17;;;;;;;55.58;10.23;;;;;;;5.20;100.00;103237.59;4790947;29;20045;-79
2022/03/18 03:49:44;;;;;;;55.63;10.95;;;;;;;5.18;100.00;103239.50;4786564;29;20417;-78
2022/03/18 03:52:09;;;;;;;57.63;10.52;;;;;;;5.12;100.00;103243.44;4807890;29;20045;-78
2022/03/18 03:54:37;;;;;;;54.63;10.02;;;;;;;5.13;100.00;103242.50;4774536;29;20035;-78
2022/03/18 03:57:03;;;;;;;67.35;11.75;;;;;;;5.15;100.00;103245.91;4814714;29;20030;-78
2022/03/18 03:59:28;;;;;;;48.42;10.02;;;;;;;5.17;100.00;103240.47;4806603;29;20081;-78
2022/03/18 04:01:53;;;;;;;58.60;10.48;;;;;;;5.02;100.00;103220.16;4792173;29;20051;-79
2022/03/18 04:04:19;;;;;;;54.10;11.07;;;;;;;5.24;100.00;103252.44;4793362;29;20416;-79
2022/03/18 04:06:44;;;;;;;57.53;9.70;;;;;;;5.08;100.00;103217.06;4795930;29;20466;-78
2022/03/18 04:09:10;;;;;;;56.53;10.73;;;;;;;5.23;100.00;103255.19;4806266;29;20027;-79
2022/03/18 04:11:36;;;;;;;57.60;11.35;;;;;;;5.28;100.00;103261.09;4791719;29;20031;-79
2022/03/18 04:14:01;;;;;;;46.35;10.45;;;;;;;5.09;100.00;103235.63;4791425;29;20221;-78
2022/03/18 04:16:27;;;;;;;45.95;9.48;;;;;;;5.30;100.00;103267.19;4806720;29;20031;-78
2022/03/18 04:18:52;;;;;;;51.60;10.18;;;;;;;5.34;100.00;103279.38;4808383;29;20454;-78
2022/03/18 04:21:18;;;;;;;57.95;11.02;;;;;;;5.14;100.00;103238.88;4812294;29;20042;-79
2022/03/18 04:23:43;;;;;;;52.42;9.55;;;;;;;5.18;100.00;103255.53;4798218;29;20034;-79
2022/03/18 04:26:08;;;;;;;45.63;9.57;;;;;;;5.42;100.00;103295.72;4787150;30;20049;-79
2022/03/18 04:28:34;;;;;;;56.20;9.70;;;;;;;5.45;100.00;103298.19;4789073;29;20042;-79
2022/03/18 04:31:01;;;;;;;45.00;9.88;;;;;;;5.04;100.00;103235.09;4776479;29;20052;-78
2022/03/18 04:33:26;;;;;;;54.20;11.55;;;;;;;5.50;100.00;103309.41;4789708;29;20059;-79
2022/03/18 04:35:52;;;;;;;51.85;10.23;;;;;;;5.51;100.00;103305.78;4791055;29;20046;-79
2022/03/18 04:38:18;;;;;;;57.22;9.57;;;;;;;5.54;100.00;103304.72;4759543;29;20034;-79
2022/03/18 04:40:43;;;;;;;50.85;10.70;;;;;;;5.52;100.00;103307.47;4789395;29;20182;-78
2022/03/18 04:43:09;;;;;;;47.55;10.55;;;;;;;5.50;100.00;103314.75;4790452;29;20035;-78
2022/03/18 04:45:35;;;;;;;54.90;11.07;;;;;;;5.38;100.00;103287.06;4772647;29;20054;-78
2022/03/18 04:48:01;;;;;;;54.58;10.55;;;;;;;5.56;100.00;103321.47;4791177;29;20038;-78
2022/03/18 04:50:28;;;;;;;51.28;11.18;;;;;;;5.51;100.00;103319.13;4775052;29;20035;-78
2022/03/18 04:52:53;;;;;;;51.72;11.80;;;;;;;5.62;100.00;103332.59;4771676;29;20126;-78
2022/03/18 04:55:19;;;;;;;48.50;11.15;;;;;;;5.58;100.00;103312.41;4791190;29;20114;-77
2022/03/18 04:57:44;;;;;;;54.22;10.35;;;;;;;5.69;100.00;103334.84;4806206;29;20034;-78
2022/03/18 05:00:10;;;;;;;48.17;10.20;;;;;;;5.78;100.00;103334.22;4804068;29;20096;-77
2022/03/18 05:02:38;;;;;;;51.17;10.98;;;;;;;5.80;100.00;103337.66;4782450;30;20027;-78
2022/03/18 05:05:08;;;;;;;45.78;10.15;;;;;;;5.83;100.00;103349.00;4788534;30;20041;-78
2022/03/18 05:07:34;;;;;;;61.72;10.57;;;;;;;5.86;100.00;103348.78;4778836;30;20411;-78
2022/03/18 05:09:59;;;;;;;50.47;11.73;;;;;;;5.92;100.00;103352.81;4792291;29;20102;-77
2022/03/18 05:12:27;;;;;;;53.17;11.00;;;;;;;5.92;100.00;103355.50;4808076;29;20038;-78
2022/03/18 05:14:53;;;;;;;51.15;10.90;;;;;;;5.87;100.00;103366.50;4804460;29;20035;-78
2022/03/18 05:17:19;;;;;;;58.13;10.00;;;;;;;5.89;100.00;103359.25;4779408;29;20070;-78
2022/03/18 05:19:46;;;;;;;56.42;13.00;;;;;;;5.93;100.00;103359.06;4806472;29;20074;-78
2022/03/18 05:22:11;;;;;;;47.60;10.38;;;;;;;5.85;100.00;103363.09;4772549;29;20099;-78
2022/03/18 05:24:36;;;;;;;61.20;11.18;;;;;;;5.99;100.00;103375.53;4787402;29;20466;-78
2022/03/18 05:27:03;;;;;;;58.63;11.30;;;;;;;6.00;100.00;103377.25;4784086;29;20058;-78
2022/03/18 05:29:31;;;;;;;61.30;11.50;;;;;;;5.94;100.00;103366.97;4778303;29;20101;-78
2022/03/18 05:31:57;;;;;;;50.13;10.15;;;;;;;6.06;100.00;103386.66;4797220;29;20065;-78
2022/03/18 05:34:23;;;;;;;56.53;10.35;;;;;;;6.10;100.00;103377.47;4773960;29;20386;-79
2022/03/18 05:36:50;;;;;;;60.58;11.38;;;;;;;6.13;100.00;103371.06;4779768;29;20035;-79
2022/03/18 05:39:16;;;;;;;59.55;10.50;;;;;;;6.16;100.00;103370.81;4780016;29;20552;-79
2022/03/18 05:41:44;;;;;;;57.22;11.23;;;;;;;6.19;100.00;103376.84;4801042;29;20433;-79
2022/03/18 05:44:10;;;;;;;58.78;10.02;;;;;;;6.24;100.00;103384.53;4788890;29;20114;-77
2022/03/18 05:46:36;;;;;;;48.15;9.75;;;;;;;6.05;100.00;103353.72;4773636;29;20527;-79
2022/03/18 05:49:03;;;;;;;51.95;10.30;;;;;;;6.25;100.00;103383.56;4799847;29;20057;-78
2022/03/18 05:51:29;;;;;;;65.53;10.15;;;;;;;6.27;100.00;103385.16;4781407;29;20069;-79
2022/03/18 05:53:55;;;;;;;56.65;10.32;;;;;;;6.30;100.00;103384.09;4779318;29;20043;-78
2022/03/18 05:59:06;;;;;;;55.47;9.60;;;;;;;6.35;100.00;103393.50;4800184;29;20042;-78
2022/03/18 06:01:37;;;;;;;55.53;9.07;;;;;;;6.28;100.00;103386.00;4796270;29;20038;-79
2022/03/18 06:04:04;;;;;;;49.90;8.60;;;;;;;6.38;100.00;103400.44;4782068;29;20049;-78
2022/03/18 06:06:29;;;;;;;47.50;8.50;;;;;;;6.27;100.00;103373.63;4796737;29;20110;-78
2022/03/18 06:11:50;;;;;;;52.65;8.50;;;;;;;6.42;100.00;103415.31;4794782;29;20058;-79
2022/03/18 06:14:24;;;;;;;49.60;7.97;;;;;;;6.47;100.00;103423.88;4798575;29;20058;-79
2022/03/18 06:16:53;;;;;;;51.38;8.77;;;;;;;6.48;100.00;103430.94;4794691;29;20066;-78
2022/03/18 06:19:20;;;;;;;59.70;10.02;;;;;;;6.48;100.00;103425.56;4784270;29;20043;-78
2022/03/18 06:21:47;;;;;;;54.90;8.75;;;;;;;6.56;100.00;103433.09;4781407;29;20035;-78
2022/03/18 06:24:13;;;;;;;50.47;7.78;;;;;;;6.59;100.00;103433.72;4780532;29;20119;-79
2022/03/18 06:26:39;;;;;;;46.78;7.65;;;;;;;6.58;100.00;103434.66;4798124;29;20053;-78
2022/03/18 06:29:05;;;;;;;43.35;7.63;;;;;;;6.63;100.00;103447.75;4779241;29;20031;-78
2022/03/18 06:31:31;;;;;;;52.15;8.82;;;;;;;6.62;100.00;103451.34;4794524;29;20479;-79
2022/03/18 06:33:58;;;;;;;36.72;6.80;;;;;;;6.66;100.00;103452.88;4806877;29;20017;-78
2022/03/18 06:36:24;;;;;;;45.22;7.68;;;;;;;6.69;100.00;103455.34;4816150;29;20012;-77
2022/03/18 06:38:51;;;;;;;50.47;8.15;;;;;;;6.68;100.00;103461.63;4807463;29;20165;-79
2022/03/18 06:41:18;;;;;;;45.08;8.00;;;;;;;6.64;100.00;103465.50;4800819;29;20031;-78
2022/03/18 06:43:43;;;;;;;47.03;7.88;;;;;;;6.74;100.00;103471.91;4799709;29;20060;-78
2022/03/18 06:46:11;;;;;;;44.42;6.90;;;;;;;6.72;100.00;103467.63;4802630;29;20437;-79
2022/03/18 06:48:36;;;;;;;49.08;7.82;;;;;;;6.67;100.00;103457.25;4772373;29;20069;-81
2022/03/18 06:51:02;;;;;;;49.92;6.70;;;;;;;6.65;100.00;103447.63;4791344;29;20062;-79
2022/03/18 06:53:28;;;;;;;45.00;8.27;;;;;;;6.80;100.00;103459.91;4803115;29;20038;-80
2022/03/18 06:55:53;;;;;;;47.03;7.53;;;;;;;6.45;100.00;103395.53;4777333;29;20136;-83
2022/03/18 06:58:20;;;;;;;54.92;7.82;;;;;;;6.79;100.00;103463.56;4787821;29;20035;-79
2022/03/18 07:00:45;;;;;;;39.38;6.35;;;;;;;6.90;100.00;103489.56;4787348;29;20066;-81
2022/03/18 07:03:12;;;;;;;53.42;9.05;;;;;;;6.89;100.00;103478.00;4801246;29;20224;-80
2022/03/18 07:05:38;;;;;;;51.53;7.40;;;;;;;6.95;100.00;103482.03;4800771;29;20031;-81
2022/03/18 07:08:03;;;;;;;44.78;6.43;;;;;;;6.67;100.00;103441.19;4805474;29;20027;-82
2022/03/18 07:10:29;;;;;;;52.72;8.38;;;;;;;7.02;100.00;103481.50;4785663;29;20134;-80
2022/03/18 07:12:54;;;;;;;45.60;6.68;;;;;;;7.12;100.00;103495.09;4759341;29;20401;-80
2022/03/18 07:15:19;;;;;;;47.13;6.38;;;;;;;7.15;100.00;103502.91;4783165;29;20043;-80
2022/03/18 07:18:01;;;;;;;40.20;6.55;;;;;;;6.92;100.00;103464.41;4796412;29;20106;-80
2022/03/18 07:20:28;;;;;;;35.85;5.15;;;;;;;7.21;100.00;103520.34;4775271;29;20039;-78
2022/03/18 07:23:00;;;;;;;46.00;6.93;;;;;;;7.23;100.00;103515.75;4784338;29;20096;-80
2022/03/18 07:25:26;;;;;;;40.88;6.55;;;;;;;7.17;100.00;103500.09;4801492;29;20035;-79
2022/03/18 07:27:51;;;;;;;46.17;6.03;;;;;;;7.30;100.00;103533.06;4801725;29;20370;-79
2022/03/18 07:30:16;;;;;;;32.20;5.50;;;;;;;7.26;100.00;103523.56;4784005;29;20023;-79
2022/03/18 07:32:42;;;;;;;46.60;5.88;;;;;;;7.39;100.00;103534.25;4783878;29;20030;-80
2022/03/18 07:35:08;;;;;;;44.97;5.97;;;;;;;7.28;100.00;103526.97;4784367;29;20063;-80
2022/03/18 07:37:33;;;;;;;32.45;4.72;;;;;;;7.44;100.00;103532.91;4801803;29;20031;-80
2022/03/18 07:39:59;;;;;;;41.58;5.07;;;;;;;7.48;100.00;103538.91;4799213;29;20428;-81
2022/03/18 07:42:24;;;;;;;38.25;6.25;;;;;;;7.38;100.00;103538.72;4787714;29;20486;-80
2022/03/18 07:44:49;;;;;;;41.90;6.38;;;;;;;7.53;100.00;103556.38;4768232;29;20040;-79
2022/03/18 07:47:15;;;;;;;35.40;6.00;;;;;;;7.63;100.00;103569.97;4783993;29;20027;-81
2022/03/18 07:49:40;;;;;;;36.55;5.75;;;;;;;7.70;100.00;103575.72;4804100;29;20441;-80
2022/03/18 07:52:06;;;;;;;39.92;6.22;;;;;;;7.29;100.00;103513.47;4799243;29;20035;-77
2022/03/18 07:54:31;;;;;;;38.78;4.63;;;;;;;7.70;100.00;103581.09;4803180;29;20035;-78
2022/03/18 07:56:56;;;;;;;32.08;4.00;;;;;;;7.53;100.00;103559.03;4784978;29;20034;-78
2022/03/18 07:59:22;;;;;;;36.97;5.60;;;;;;;7.70;100.00;103592.66;4804913;29;20069;-79
2022/03/18 08:01:47;;;;;;;36.60;5.38;;;;;;;7.59;100.00;103592.59;4794067;29;20046;-79
2022/03/18 08:04:13;;;;;;;36.05;4.57;;;;;;;7.64;100.00;103600.28;4762592;29;20092;-79
2022/03/18 08:06:39;;;;;;;35.55;6.57;;;;;;;7.65;100.00;103604.66;4802084;29;20035;-79
2022/03/18 08:09:05;;;;;;;40.40;5.53;;;;;;;7.69;100.00;103608.88;4797638;29;20091;-80
2022/03/18 08:11:33;;;;;;;37.33;6.07;;;;;;;7.70;100.00;103608.72;4789994;29;20089;-79
2022/03/18 08:13:58;;;;;;;29.73;4.43;;;;;;;7.71;100.00;103625.66;4804757;29;20047;-80
2022/03/18 08:16:26;;;;;;;30.20;4.82;;;;;;;7.81;100.00;103631.22;4792334;29;20038;-80
2022/03/18 08:18:51;;;;;;;30.90;4.70;;;;;;;7.72;100.00;103630.94;4809318;29;20045;-80
2022/03/18 08:21:17;;;;;;;27.05;5.20;;;;;;;7.75;100.00;103640.59;4789938;29;20121;-79
2022/03/18 08:23:43;;;;;;;32.15;4.10;;;;;;;7.70;100.00;103640.03;4812618;29;20050;-80
2022/03/18 08:26:08;;;;;;;28.98;4.18;;;;;;;7.68;100.00;103650.00;4793917;29;20030;-80
2022/03/18 08:28:33;;;;;;;31.70;5.25;;;;;;;7.80;100.00;103646.44;4770878;29;20070;-79
2022/03/18 08:30:59;;;;;;;27.67;4.72;;;;;;;7.78;100.00;103645.69;4807260;29;20035;-77
2022/03/18 08:33:26;;;;;;;24.08;3.97;;;;;;;7.69;100.00;103641.03;4791255;29;20030;-79
2022/03/18 08:35:51;;;;;;;31.73;4.18;;;;;;;7.71;100.00;103661.38;4770166;29;20066;-79
2022/03/18 08:38:16;;;;;;;31.85;4.90;;;;;;;7.71;100.00;103672.09;4783604;29;20147;-78
2022/03/18 08:40:42;;;;;;;24.67;4.47;;;;;;;7.62;100.00;103671.91;4775286;29;20042;-78
2022/03/18 08:43:11;;;;;;;25.00;4.43;;;;;;;7.72;100.00;103672.97;4763087;29;20033;-80
2022/03/18 08:45:37;;;;;;;26.90;3.50;;;;;;;7.80;100.00;103672.41;4784158;29;20034;-78
2022/03/18 08:48:04;;;;;;;27.58;4.90;;;;;;;7.81;100.00;103683.00;4797883;29;20047;-78
2022/03/18 08:50:30;;;;;;;30.42;3.85;;;;;;;7.77;100.00;103679.69;4800227;29;20481;-78
2022/03/18 08:52:57;;;;;;;30.77;4.18;;;;;;;7.70;100.00;103690.97;4800070;29;20489;-77
2022/03/18 08:55:23;;;;;;;28.33;4.60;;;;;;;7.74;100.00;103698.66;4780876;29;20038;-78
2022/03/18 08:57:50;;;;;;;35.55;4.70;;;;;;;7.51;100.00;103684.22;4780796;29;20466;-77
2022/03/18 09:00:17;;;;;;;32.95;5.03;;;;;;;7.60;100.00;103708.66;4770874;29;20039;-78
2022/03/18 09:02:43;;;;;;;24.42;3.85;;;;;;;7.53;100.00;103693.03;4799191;29;20811;-78
2022/03/18 09:05:10;;;;;;;30.20;4.80;;;;;;;7.51;100.00;103710.16;4767950;29;20397;-78
2022/03/18 09:07:36;;;;;;;31.27;4.07;;;;;;;7.56;100.00;103720.59;4795222;29;20043;-78
2022/03/18 09:10:04;;;;;;;23.25;3.95;;;;;;;7.57;100.00;103728.50;4782796;29;20395;-80
2022/03/18 09:12:29;;;;;;;29.30;5.45;;;;;;;7.31;100.00;103692.81;4783110;29;20066;-79
2022/03/18 09:14:55;;;;;;;23.35;4.13;;;;;;;7.54;100.00;103739.44;4783535;29;20034;-78
2022/03/18 09:17:21;;;;;;;25.20;4.10;;;;;;;7.48;100.00;103743.41;4783000;29;20031;-79
2022/03/18 09:19:46;;;;;;;31.75;4.82;;;;;;;7.33;100.00;103748.97;4799077;29;20183;-79
2022/03/18 09:22:16;;;;;;;28.38;4.95;;;;;;;7.43;100.00;103758.09;4797691;29;20046;-79
2022/03/18 09:24:44;;;;;;;34.75;4.78;;;;;;;7.47;100.00;103759.56;4771298;29;20031;-78
2022/03/18 09:27:10;;;;;;;19.73;3.47;;;;;;;7.42;100.00;103769.78;4801507;29;20035;-81
2022/03/18 09:29:36;;;;;;;29.73;4.68;;;;;;;7.53;100.00;103769.88;4792881;29;20133;-79
2022/03/18 09:32:03;;;;;;;24.27;4.28;;;;;;;7.48;100.00;103758.59;4787701;29;20019;-79
2022/03/18 09:34:29;;;;;;;29.60;4.45;;;;;;;7.52;100.00;103777.06;4811391;29;20045;-78
2022/03/18 09:36:56;;;;;;;22.75;3.53;;;;;;;7.54;100.00;103780.47;4884946;24;20058;-81
2022/03/18 09:39:24;;;;;;;24.15;3.50;;;;;;;7.56;100.00;103779.53;4836187;29;20069;-80
2022/03/18 09:41:50;;;;;;;26.75;3.58;;;;;;;7.56;100.00;103780.38;4796071;29;20023;-79
2022/03/18 09:44:16;;;;;;;35.50;5.15;;;;;;;7.49;100.00;103771.06;4802816;29;20023;-80
2022/03/18 09:46:42;;;;;;;29.33;4.88;;;;;;;7.59;100.00;103788.22;4801339;29;20342;-79
2022/03/18 09:49:12;;;;;;;21.52;3.67;;;;;;;7.61;100.00;103788.94;4806758;29;20042;-81
2022/03/18 09:51:41;;;;;;;33.35;4.20;;;;;;;7.54;100.00;103791.19;4815099;24;20039;-81
2022/03/18 09:54:08;;;;;;;25.65;3.70;;;;;;;7.56;100.00;103809.84;4793778;29;20031;-79
2022/03/18 09:56:45;;;;;;;21.95;3.70;;;;;;;7.68;100.00;103800.09;4772753;30;20036;-79
2022/03/18 09:59:11;;;;;;;29.80;3.60;;;;;;;7.58;100.00;103813.28;4781974;30;20028;-80
2022/03/18 10:01:37;;;;;;;22.80;3.80;;;;;;;7.75;100.00;103814.81;4771430;30;21799;-78
2022/03/18 10:04:06;;;;;;;27.17;4.22;;;;;;;7.63;100.00;103792.38;4766271;30;20063;-78
2022/03/18 10:06:34;;;;;;;28.15;4.65;;;;;;;7.74;100.00;103821.97;4767988;30;20047;-81
2022/03/18 10:09:00;;;;;;;23.67;3.80;;;;;;;7.57;100.00;103829.47;4783667;30;20035;-80
2022/03/18 10:11:30;;;;;;;24.35;4.38;;;;;;;7.70;100.00;103822.31;4790261;30;20565;-80
2022/03/18 10:14:00;;;;;;;30.65;4.05;;;;;;;7.64;100.00;103833.44;4797448;29;20071;-85
2022/03/18 10:24:11;;;;;;;22.63;3.80;;;;;;;7.75;100.00;103857.72;5288824;24;20058;-83
2022/03/18 10:29:11;;;;;;;26.13;3.85;;;;;;;7.75;100.00;103846.97;4817786;29;20046;-81
2022/03/18 10:31:37;;;;;;;20.02;3.38;;;;;;;7.73;100.00;103865.84;4807701;29;20034;-81
2022/03/18 10:37:05;;;;;;;21.63;3.38;;;;;;;7.81;100.00;103873.34;4812448;29;20067;-81
2022/03/18 10:39:40;;;;;;;20.98;3.50;;;;;;;7.73;100.00;103870.34;4821629;29;20023;-81
2022/03/18 10:42:11;;;;;;;29.95;3.78;;;;;;;7.84;100.00;103856.19;4795198;29;20322;-79
2022/03/18 10:44:47;;;;;;;28.38;4.40;;;;;;;7.87;100.00;103872.91;4777367;29;20119;-78
2022/03/18 10:47:28;;;;;;;20.23;3.55;;;;;;;7.82;100.00;103874.22;4800334;29;20035;-79
2022/03/18 10:50:14;;;;;;;20.13;3.53;;;;;;;7.78;100.00;103878.91;4785767;29;20071;-78
2022/03/18 10:53:05;;;;;;;28.42;4.35;;;;;;;7.82;100.00;103888.47;4802669;29;20023;-78
2022/03/18 10:55:52;;;;;;;16.90;3.03;;;;;;;7.76;100.00;103887.06;4805384;29;20030;-78
2022/03/18 10:58:20;;;;;;;24.88;4.18;;;;;;;7.82;100.00;103895.66;4789987;29;20050;-77
2022/03/18 11:00:50;;;;;;;26.50;4.30;;;;;;;7.80;100.00;103909.16;4803029;29;20046;-78
2022/03/18 11:03:16;;;;;;;28.20;3.88;;;;;;;7.80;100.00;103919.03;4797407;29;20031;-79
2022/03/18 11:05:45;;;;;;;26.15;3.67;;;;;;;7.66;100.00;103891.34;4790190;29;20031;-78
2022/03/18 11:08:14;;;;;;;27.70;4.25;;;;;;;7.84;100.00;103916.03;4791876;29;20042;-79
2022/03/18 11:14:03;;;;;;;20.88;3.28;;;;;;;7.87;100.00;103926.53;4798744;29;20374;-78
2022/03/18 11:16:31;;;;;;;27.02;3.55;;;;;;;7.90;100.00;103923.66;4806783;29;20497;-77
2022/03/18 11:19:04;;;;;;;26.15;3.65;;;;;;;7.95;100.00;103934.94;4796085;29;20038;-79
2022/03/18 11:21:38;;;;;;;27.85;3.78;;;;;;;7.93;100.00;103933.31;4792553;29;20130;-77
2022/03/18 11:24:06;;;;;;;20.23;3.25;;;;;;;8.05;100.00;103945.03;4795131;29;20120;-78
2022/03/18 11:26:35;;;;;;;31.02;3.95;;;;;;;8.03;100.00;103938.91;4797754;29;20134;-78
2022/03/18 11:29:23;;;;;;;26.92;3.20;;;;;;;7.96;100.00;103952.72;4794684;29;20063;-79
2022/03/18 11:32:29;;;;;;;16.80;2.67;;;;;;;7.83;100.00;103965.25;4804554;29;20038;-79
2022/03/18 11:35:00;;;;;;;23.00;3.75;;;;;;;7.47;100.00;103897.06;4805582;29;20135;-77
2022/03/18 11:37:26;;;;;;;20.83;3.25;;;;;;;7.79;100.00;103965.56;4785558;29;20150;-78
2022/03/18 11:40:12;;;;;;;19.98;2.92;;;;;;;7.86;100.00;103969.56;4798340;29;20035;-78
2022/03/18 11:42:38;;;;;;;25.88;4.35;;;;;;;7.63;100.00;103933.56;4800971;29;20331;-78
2022/03/18 11:45:06;;;;;;;20.98;3.65;;;;;;;7.78;100.00;103956.66;4789600;29;20191;-79
2022/03/18 11:47:31;;;;;;;27.88;4.40;;;;;;;7.82;100.00;103958.19;4789038;29;20035;-78